logo
Search for airport 
image banner adimage banner adimage banner ad
image banner ad

VT39 - Taylor

Located in Wolcott, United States

ICAO - VT39, IATA -

Data provided by Airmate  

General information

Coordinates: N44°36'27" W72°28'49"
Elevation is 1140 feet MSL.
Magnetic variation is -16° East
View others Airports in Vermont

Operational data

Special qualification required
Current time UTC:
Current local time:
Weather at : KMVL - Morrisville-Stowe State ( 13 km )
METAR: KMVL 131454Z AUTO 19009KT 10SM SCT041 BKN049 BKN070 09/02 A2938 RMK AO2 SLP951 T00940017 51012
View NOTAMs / SUP AIP / TFR affecting this airport [VIEW]
Communications frequencies: [VIEW]

Runways:

RWY identifierQFULength (ft)Width (ft)SurfaceLDA (ft)
NW2000100GRASS
SE2000100GRASS

Airport contact information

Address: Wolcott United States

Satellite view of VT39